createdAt,value
2023-11-13T00:00:21.588Z,63.39
2023-11-13T00:11:02.862Z,63.21
2023-11-13T00:21:24.244Z,63.11
2023-11-13T00:31:45.735Z,63.07
2023-11-13T00:42:07.060Z,63.30
2023-11-13T00:52:28.201Z,62.86
2023-11-13T01:02:49.540Z,63.29
2023-11-13T01:13:11.603Z,63.49
2023-11-13T01:23:33.484Z,63.22
2023-11-13T01:33:54.775Z,63.09
2023-11-13T01:44:16.070Z,63.35
2023-11-13T01:54:37.736Z,63.41
2023-11-13T02:04:58.813Z,63.34
2023-11-13T02:15:20.544Z,63.43
2023-11-13T02:25:42.943Z,63.32
2023-11-13T02:36:05.150Z,63.40
2023-11-13T02:46:26.504Z,63.56
2023-11-13T02:56:47.795Z,63.95
2023-11-13T03:07:09.206Z,63.54
2023-11-13T03:17:31.531Z,63.93
2023-11-13T03:27:53.020Z,63.86
2023-11-13T03:38:14.417Z,63.56
2023-11-13T03:48:35.588Z,63.89
2023-11-13T03:58:56.894Z,63.67
2023-11-13T04:09:17.902Z,63.77
2023-11-13T04:19:41.929Z,63.71
2023-11-13T04:30:03.070Z,63.51
2023-11-13T04:40:24.531Z,63.61
2023-11-13T04:50:45.693Z,63.71
2023-11-13T05:01:07.253Z,63.79
2023-11-13T05:11:29.248Z,63.95
2023-11-13T05:21:50.555Z,63.67
2023-11-13T05:32:11.761Z,63.90
2023-11-13T05:42:33.227Z,63.46
2023-11-13T05:52:54.593Z,63.46
2023-11-13T06:03:15.999Z,63.87
2023-11-13T06:13:37.479Z,63.56
2023-11-13T06:23:58.808Z,63.81
2023-11-13T06:34:20.123Z,63.85
2023-11-13T06:44:42.921Z,63.53
2023-11-13T06:55:04.619Z,63.75
2023-11-13T07:05:26.472Z,63.44
2023-11-13T07:15:48.155Z,63.96
2023-11-13T07:26:10.707Z,63.46
2023-11-13T07:36:33.133Z,64.00
2023-11-13T07:46:55.168Z,63.65
2023-11-13T07:57:17.131Z,64.07
2023-11-13T08:07:42.284Z,64.00
2023-11-13T08:18:05.496Z,63.87
2023-11-13T08:28:27.834Z,63.65
2023-11-13T08:38:49.142Z,64.49
2023-11-13T08:49:10.717Z,64.19
2023-11-13T08:59:32.113Z,64.14
2023-11-13T09:09:56.491Z,64.07
2023-11-13T09:20:21.025Z,64.63
2023-11-13T09:30:42.280Z,64.48
2023-11-13T09:41:05.479Z,64.73
2023-11-13T09:51:30.995Z,64.72
2023-11-13T10:01:52.506Z,64.83
2023-11-13T10:12:13.838Z,64.98
2023-11-13T10:22:35.088Z,64.91
2023-11-13T10:32:56.158Z,65.34
2023-11-13T10:43:32.114Z,65.31
2023-11-13T10:53:54.180Z,65.28
2023-11-13T11:04:18.014Z,65.51
2023-11-13T11:15:15.393Z,65.88
2023-11-13T11:25:39.589Z,65.83
2023-11-13T11:36:01.569Z,66.47
2023-11-13T11:46:23.943Z,66.12
2023-11-13T11:57:06.015Z,66.26
2023-11-13T12:07:27.331Z,66.59
2023-11-13T12:17:48.454Z,66.18
2023-11-13T12:28:10.503Z,66.66
2023-11-13T12:38:31.930Z,66.68
2023-11-13T12:49:00.373Z,66.67
2023-11-13T12:59:21.854Z,67.00
2023-11-13T13:09:45.905Z,66.79
2023-11-13T13:20:19.949Z,67.07
2023-11-13T13:30:41.963Z,67.67
2023-11-13T13:41:05.391Z,67.14
2023-11-13T13:51:26.716Z,67.62
2023-11-13T14:01:49.199Z,67.31
2023-11-13T14:12:18.652Z,67.92
2023-11-13T14:22:49.987Z,68.01
2023-11-13T14:33:12.858Z,68.49
2023-11-13T14:43:34.265Z,68.20
2023-11-13T14:53:55.752Z,67.74
2023-11-13T15:04:17.174Z,67.75
2023-11-13T15:14:40.918Z,67.81
2023-11-13T15:25:01.975Z,68.55
2023-11-13T15:35:23.657Z,69.56
2023-11-13T15:45:44.940Z,69.09
2023-11-13T15:56:09.182Z,69.37
2023-11-13T16:06:30.561Z,69.31
2023-11-13T16:16:52.435Z,69.82
2023-11-13T16:27:13.879Z,69.84
2023-11-13T16:37:35.076Z,70.11
2023-11-13T16:47:57.253Z,69.98
2023-11-13T16:58:18.234Z,70.70
2023-11-13T17:08:40.541Z,70.57
2023-11-13T17:19:01.656Z,70.56
2023-11-13T17:29:23.065Z,70.75
2023-11-13T17:39:46.628Z,70.64
2023-11-13T17:50:10.128Z,70.69
2023-11-13T18:00:31.480Z,70.71
2023-11-13T18:10:57.402Z,69.88
2023-11-13T18:21:19.726Z,69.97
2023-11-13T18:31:42.163Z,70.22
2023-11-13T18:42:04.197Z,69.92
2023-11-13T18:52:27.189Z,69.83
2023-11-13T19:02:49.248Z,70.91
2023-11-13T19:13:10.612Z,69.80
2023-11-13T19:23:32.440Z,69.80
2023-11-13T19:33:56.483Z,70.28
2023-11-13T19:44:17.948Z,71.08
2023-11-13T19:54:39.426Z,71.33
2023-11-13T20:05:01.213Z,71.16
2023-11-13T20:15:23.176Z,71.51
2023-11-13T20:25:44.706Z,70.89
2023-11-13T20:36:07.591Z,71.03
2023-11-13T20:46:29.127Z,71.00
2023-11-13T20:56:50.178Z,71.05
2023-11-13T21:07:12.925Z,71.47
2023-11-13T21:17:34.264Z,71.24
2023-11-13T21:27:55.762Z,71.33
2023-11-13T21:38:17.091Z,70.63
2023-11-13T21:48:38.368Z,71.72
2023-11-13T21:59:00.024Z,70.92
2023-11-13T22:09:22.451Z,70.54
2023-11-13T22:19:43.864Z,70.56
2023-11-13T22:30:05.625Z,70.62
2023-11-13T22:40:27.669Z,70.47
2023-11-13T22:50:49.180Z,70.49
2023-11-13T23:01:10.717Z,70.97
2023-11-13T23:11:33.286Z,71.05
2023-11-13T23:22:01.979Z,71.33
2023-11-13T23:32:25.767Z,70.99
2023-11-13T23:42:47.038Z,71.11
2023-11-13T23:53:09.067Z,70.90
